sensor_id;sensor_type;location;lat;lon;timestamp;pressure;altitude;pressure_sealevel;temperature;humidity
73594;BME280;62064;53.406;23.500;2022-07-23T00:00:05;99633.22;;;23.96;64.69
73594;BME280;62064;53.406;23.500;2022-07-23T00:02:53;99649.06;;;23.99;64.15
73594;BME280;62064;53.406;23.500;2022-07-23T00:05:19;99636.53;;;23.93;64.14
73594;BME280;62064;53.406;23.500;2022-07-23T00:07:45;99630.00;;;23.89;64.71
73594;BME280;62064;53.406;23.500;2022-07-23T00:10:11;99638.22;;;23.89;64.48
73594;BME280;62064;53.406;23.500;2022-07-23T00:12:38;99645.31;;;23.90;64.13
73594;BME280;62064;53.406;23.500;2022-07-23T00:15:05;99638.75;;;23.85;64.07
73594;BME280;62064;53.406;23.500;2022-07-23T00:17:33;99637.69;;;23.81;64.17
73594;BME280;62064;53.406;23.500;2022-07-23T00:19:59;99627.66;;;23.72;64.10
73594;BME280;62064;53.406;23.500;2022-07-23T00:22:29;99625.44;;;23.74;64.55
73594;BME280;62064;53.406;23.500;2022-07-23T00:24:56;99619.44;;;23.72;64.58
73594;BME280;62064;53.406;23.500;2022-07-23T00:27:22;99614.81;;;23.67;64.38
73594;BME280;62064;53.406;23.500;2022-07-23T00:29:49;99611.53;;;23.65;64.33
73594;BME280;62064;53.406;23.500;2022-07-23T00:32:15;99610.44;;;23.66;63.95
73594;BME280;62064;53.406;23.500;2022-07-23T00:34:41;99614.81;;;23.67;64.07
73594;BME280;62064;53.406;23.500;2022-07-23T00:37:07;99609.94;;;23.64;64.18
73594;BME280;62064;53.406;23.500;2022-07-23T00:39:33;99617.56;;;23.67;64.01
73594;BME280;62064;53.406;23.500;2022-07-23T00:41:59;99617.84;;;23.66;64.16
73594;BME280;62064;53.406;23.500;2022-07-23T00:44:27;99617.00;;;23.65;64.06
73594;BME280;62064;53.406;23.500;2022-07-23T00:46:55;99625.78;;;23.67;63.87
73594;BME280;62064;53.406;23.500;2022-07-23T00:49:28;99621.94;;;23.68;64.08
73594;BME280;62064;53.406;23.500;2022-07-23T00:51:55;99613.75;;;23.63;63.76
73594;BME280;62064;53.406;23.500;2022-07-23T00:54:25;99614.03;;;23.62;63.76
73594;BME280;62064;53.406;23.500;2022-07-23T00:56:54;99611.84;;;23.64;64.36
73594;BME280;62064;53.406;23.500;2022-07-23T00:59:21;99616.19;;;23.65;63.86
73594;BME280;62064;53.406;23.500;2022-07-23T01:01:49;99610.19;;;23.63;64.00
73594;BME280;62064;53.406;23.500;2022-07-23T01:04:16;99609.97;;;23.59;63.75
73594;BME280;62064;53.406;23.500;2022-07-23T01:06:42;99608.28;;;23.63;63.93
73594;BME280;62064;53.406;23.500;2022-07-23T01:09:11;99615.41;;;23.64;63.87
73594;BME280;62064;53.406;23.500;2022-07-23T01:11:37;99596.84;;;23.56;64.23
73594;BME280;62064;53.406;23.500;2022-07-23T01:14:10;99612.94;;;23.63;63.99
73594;BME280;62064;53.406;23.500;2022-07-23T01:16:37;99614.84;;;23.62;64.41
73594;BME280;62064;53.406;23.500;2022-07-23T01:19:04;99609.69;;;23.61;63.79
73594;BME280;62064;53.406;23.500;2022-07-23T01:21:36;99611.59;;;23.60;63.67
73594;BME280;62064;53.406;23.500;2022-07-23T01:24:02;99611.06;;;23.58;63.96
73594;BME280;62064;53.406;23.500;2022-07-23T01:26:30;99607.81;;;23.56;64.04
73594;BME280;62064;53.406;23.500;2022-07-23T01:28:57;99600.13;;;23.53;64.14
73594;BME280;62064;53.406;23.500;2022-07-23T01:31:23;99600.44;;;23.52;63.85
73594;BME280;62064;53.406;23.500;2022-07-23T01:33:50;99597.72;;;23.47;64.06
73594;BME280;62064;53.406;23.500;2022-07-23T01:36:16;99609.22;;;23.49;63.92
73594;BME280;62064;53.406;23.500;2022-07-23T01:38:42;99604.28;;;23.46;64.51
73594;BME280;62064;53.406;23.500;2022-07-23T01:41:08;99602.38;;;23.46;63.92
73594;BME280;62064;53.406;23.500;2022-07-23T01:43:34;99594.47;;;23.45;64.11
73594;BME280;62064;53.406;23.500;2022-07-23T01:46:01;99591.19;;;23.43;63.86
73594;BME280;62064;53.406;23.500;2022-07-23T01:48:34;99587.59;;;23.42;64.14
73594;BME280;62064;53.406;23.500;2022-07-23T01:51:19;99607.34;;;23.44;64.25
73594;BME280;62064;53.406;23.500;2022-07-23T01:53:55;99595.81;;;23.42;63.98
73594;BME280;62064;53.406;23.500;2022-07-23T01:56:22;99599.63;;;23.41;64.39
73594;BME280;62064;53.406;23.500;2022-07-23T01:58:48;99590.66;;;23.35;64.24
73594;BME280;62064;53.406;23.500;2022-07-23T02:01:15;99592.31;;;23.36;64.00
73594;BME280;62064;53.406;23.500;2022-07-23T02:03:41;99586.84;;;23.36;64.51
73594;BME280;62064;53.406;23.500;2022-07-23T02:06:07;99592.59;;;23.35;64.46
73594;BME280;62064;53.406;23.500;2022-07-23T02:08:33;99598.56;;;23.37;64.10
73594;BME280;62064;53.406;23.500;2022-07-23T02:11:04;99595.31;;;23.35;64.14
73594;BME280;62064;53.406;23.500;2022-07-23T02:13:32;99593.41;;;23.35;64.44
73594;BME280;62064;53.406;23.500;2022-07-23T02:15:59;99593.69;;;23.34;63.95
73594;BME280;62064;53.406;23.500;2022-07-23T02:18:25;99586.31;;;23.29;64.31
73594;BME280;62064;53.406;23.500;2022-07-23T02:20:52;99585.25;;;23.25;64.46
73594;BME280;62064;53.406;23.500;2022-07-23T02:23:19;99592.91;;;23.28;64.86
73594;BME280;62064;53.406;23.500;2022-07-23T02:25:45;99589.63;;;23.26;64.80
73594;BME280;62064;53.406;23.500;2022-07-23T02:28:11;99584.72;;;23.23;64.96
73594;BME280;62064;53.406;23.500;2022-07-23T02:30:40;99578.44;;;23.23;65.06
73594;BME280;62064;53.406;23.500;2022-07-23T02:33:08;99574.91;;;23.17;65.04
73594;BME280;62064;53.406;23.500;2022-07-23T02:35:35;99589.09;;;23.24;65.24
73594;BME280;62064;53.406;23.500;2022-07-23T02:38:02;99593.75;;;23.24;65.17
73594;BME280;62064;53.406;23.500;2022-07-23T02:40:30;99597.84;;;23.21;64.82
73594;BME280;62064;53.406;23.500;2022-07-23T02:42:56;99607.69;;;23.22;65.24
73594;BME280;62064;53.406;23.500;2022-07-23T02:45:23;99601.16;;;23.18;64.59
73594;BME280;62064;53.406;23.500;2022-07-23T02:47:50;99609.38;;;23.13;64.79
73594;BME280;62064;53.406;23.500;2022-07-23T02:50:16;99608.53;;;23.18;65.19
73594;BME280;62064;53.406;23.500;2022-07-23T02:52:43;99618.97;;;23.16;64.72
73594;BME280;62064;53.406;23.500;2022-07-23T02:55:10;99617.31;;;23.15;64.84
73594;BME280;62064;53.406;23.500;2022-07-23T02:57:37;99613.75;;;23.14;65.10
73594;BME280;62064;53.406;23.500;2022-07-23T03:00:05;99620.63;;;23.12;64.53
73594;BME280;62064;53.406;23.500;2022-07-23T03:02:32;99614.06;;;23.13;64.94
73594;BME280;62064;53.406;23.500;2022-07-23T03:04:58;99614.34;;;23.11;65.13
73594;BME280;62064;53.406;23.500;2022-07-23T03:07:26;99620.38;;;23.08;64.63
73594;BME280;62064;53.406;23.500;2022-07-23T03:09:53;99632.38;;;23.12;65.21
73594;BME280;62064;53.406;23.500;2022-07-23T03:12:19;99631.25;;;23.13;64.80
73594;BME280;62064;53.406;23.500;2022-07-23T03:14:45;99623.34;;;23.12;64.66
73594;BME280;62064;53.406;23.500;2022-07-23T03:17:13;99611.34;;;23.03;64.48
73594;BME280;62064;53.406;23.500;2022-07-23T03:19:39;99638.13;;;23.11;64.74
73594;BME280;62064;53.406;23.500;2022-07-23T03:22:07;99632.13;;;23.09;64.70
73594;BME280;62064;53.406;23.500;2022-07-23T03:24:34;99614.34;;;23.06;64.75
73594;BME280;62064;53.406;23.500;2022-07-23T03:27:33;99627.75;;;23.08;64.70
73594;BME280;62064;53.406;23.500;2022-07-23T03:30:00;99632.66;;;23.11;65.00
73594;BME280;62064;53.406;23.500;2022-07-23T03:32:26;99621.72;;;23.11;64.67
73594;BME280;62064;53.406;23.500;2022-07-23T03:34:53;99623.94;;;23.09;64.57
73594;BME280;62064;53.406;23.500;2022-07-23T03:37:21;99628.84;;;23.07;64.82
73594;BME280;62064;53.406;23.500;2022-07-23T03:39:52;99625.53;;;23.10;64.82
73594;BME280;62064;53.406;23.500;2022-07-23T03:42:18;99632.16;;;23.04;64.53
73594;BME280;62064;53.406;23.500;2022-07-23T03:44:46;99632.41;;;23.07;64.68
73594;BME280;62064;53.406;23.500;2022-07-23T03:47:12;99637.31;;;23.10;64.69
73594;BME280;62064;53.406;23.500;2022-07-23T03:49:38;99634.88;;;23.09;64.56
73594;BME280;62064;53.406;23.500;2022-07-23T03:52:06;99634.31;;;23.07;64.38
73594;BME280;62064;53.406;23.500;2022-07-23T03:54:34;99632.13;;;23.09;64.28
73594;BME280;62064;53.406;23.500;2022-07-23T03:57:01;99641.69;;;23.06;64.18
73594;BME280;62064;53.406;23.500;2022-07-23T03:59:29;99637.91;;;22.97;64.35
73594;BME280;62064;53.406;23.500;2022-07-23T04:01:55;99646.91;;;23.03;64.53
73594;BME280;62064;53.406;23.500;2022-07-23T04:04:21;99643.91;;;23.04;65.12
73594;BME280;62064;53.406;23.500;2022-07-23T04:06:49;99637.63;;;23.04;64.85
73594;BME280;62064;53.406;23.500;2022-07-23T04:09:15;99637.63;;;23.04;64.46
73594;BME280;62064;53.406;23.500;2022-07-23T04:11:41;99630.78;;;23.01;64.92
73594;BME280;62064;53.406;23.500;2022-07-23T04:14:07;99635.97;;;23.03;64.48
73594;BME280;62064;53.406;23.500;2022-07-23T04:16:35;99639.78;;;23.02;64.85
73594;BME280;62064;53.406;23.500;2022-07-23T04:19:01;99634.88;;;23.04;64.54
73594;BME280;62064;53.406;23.500;2022-07-23T04:21:34;99630.50;;;23.03;64.81
73594;BME280;62064;53.406;23.500;2022-07-23T04:24:00;99638.69;;;23.03;64.70
73594;BME280;62064;53.406;23.500;2022-07-23T04:26:28;99635.16;;;23.02;64.34
73594;BME280;62064;53.406;23.500;2022-07-23T04:28:57;99634.31;;;23.02;64.98
73594;BME280;62064;53.406;23.500;2022-07-23T04:31:23;99632.66;;;23.06;64.78
73594;BME280;62064;53.406;23.500;2022-07-23T04:33:50;99637.63;;;23.04;64.99
73594;BME280;62064;53.406;23.500;2022-07-23T04:36:16;99633.25;;;22.98;64.85
73594;BME280;62064;53.406;23.500;2022-07-23T04:38:42;99635.41;;;23.06;64.81
73594;BME280;62064;53.406;23.500;2022-07-23T04:41:08;99631.31;;;23.08;64.73
73594;BME280;62064;53.406;23.500;2022-07-23T04:43:35;99627.50;;;23.04;65.06
73594;BME280;62064;53.406;23.500;2022-07-23T04:46:01;99619.00;;;23.06;65.11
73594;BME280;62064;53.406;23.500;2022-07-23T04:48:32;99619.00;;;23.06;64.96
73594;BME280;62064;53.406;23.500;2022-07-23T04:51:08;99622.28;;;23.08;64.93
73594;BME280;62064;53.406;23.500;2022-07-23T04:53:37;99618.75;;;23.02;65.33
73594;BME280;62064;53.406;23.500;2022-07-23T04:56:03;99622.84;;;23.05;64.75
73594;BME280;62064;53.406;23.500;2022-07-23T04:58:31;99632.66;;;23.06;64.77
73594;BME280;62064;53.406;23.500;2022-07-23T05:00:58;99622.31;;;23.03;64.65
73594;BME280;62064;53.406;23.500;2022-07-23T05:03:24;99627.75;;;23.08;64.59
73594;BME280;62064;53.406;23.500;2022-07-23T05:05:51;99633.47;;;23.11;64.99
73594;BME280;62064;53.406;23.500;2022-07-23T05:08:18;99618.47;;;23.09;65.02
73594;BME280;62064;53.406;23.500;2022-07-23T05:10:49;99624.19;;;23.07;65.43
73594;BME280;62064;53.406;23.500;2022-07-23T05:13:18;99629.41;;;23.09;65.42
73594;BME280;62064;53.406;23.500;2022-07-23T05:15:45;99619.25;;;23.09;65.64
73594;BME280;62064;53.406;23.500;2022-07-23T05:18:11;99619.25;;;23.09;65.37
73594;BME280;62064;53.406;23.500;2022-07-23T05:20:38;99617.91;;;23.07;65.67
73594;BME280;62064;53.406;23.500;2022-07-23T05:23:05;99620.31;;;23.13;65.86
73594;BME280;62064;53.406;23.500;2022-07-23T05:25:32;99615.41;;;23.10;65.70
73594;BME280;62064;53.406;23.500;2022-07-23T05:27:59;99620.38;;;23.08;65.89
73594;BME280;62064;53.406;23.500;2022-07-23T05:30:25;99617.31;;;23.15;65.37
73594;BME280;62064;53.406;23.500;2022-07-23T05:32:57;99612.41;;;23.17;65.69
73594;BME280;62064;53.406;23.500;2022-07-23T05:35:23;99615.38;;;23.20;66.23
73594;BME280;62064;53.406;23.500;2022-07-23T05:38:09;99613.75;;;23.19;65.76
73594;BME280;62064;53.406;23.500;2022-07-23T05:40:36;99611.28;;;23.18;65.95
73594;BME280;62064;53.406;23.500;2022-07-23T05:43:03;99606.63;;;23.18;65.46
73594;BME280;62064;53.406;23.500;2022-07-23T05:45:30;99598.72;;;23.17;65.50
73594;BME280;62064;53.406;23.500;2022-07-23T05:47:57;99603.63;;;23.20;65.55
73594;BME280;62064;53.406;23.500;2022-07-23T05:50:28;99604.97;;;23.22;65.41
73594;BME280;62064;53.406;23.500;2022-07-23T05:53:04;99598.41;;;23.23;65.65
73594;BME280;62064;53.406;23.500;2022-07-23T05:55:50;99607.41;;;23.29;65.61
73594;BME280;62064;53.406;23.500;2022-07-23T05:58:17;99594.81;;;23.28;65.75
73594;BME280;62064;53.406;23.500;2022-07-23T06:00:44;99614.22;;;23.31;65.30
73594;BME280;62064;53.406;23.500;2022-07-23T06:03:10;99613.41;;;23.31;65.44
73594;BME280;62064;53.406;23.500;2022-07-23T06:05:37;99593.75;;;23.24;65.30
73594;BME280;62064;53.406;23.500;2022-07-23T06:08:03;99615.63;;;23.29;65.53
73594;BME280;62064;53.406;23.500;2022-07-23T06:10:29;99613.38;;;23.36;65.30
73594;BME280;62064;53.406;23.500;2022-07-23T06:12:57;99617.44;;;23.38;65.26
73594;BME280;62064;53.406;23.500;2022-07-23T06:15:23;99611.47;;;23.36;65.55
73594;BME280;62064;53.406;23.500;2022-07-23T06:17:51;99612.25;;;23.37;64.97
73594;BME280;62064;53.406;23.500;2022-07-23T06:20:19;99610.34;;;23.37;65.25
73594;BME280;62064;53.406;23.500;2022-07-23T06:22:45;99617.69;;;23.42;65.24
73594;BME280;62064;53.406;23.500;2022-07-23T06:25:11;99603.53;;;23.35;64.78
73594;BME280;62064;53.406;23.500;2022-07-23T06:27:38;99612.81;;;23.39;64.42
73594;BME280;62064;53.406;23.500;2022-07-23T06:30:04;99606.50;;;23.44;64.19
73594;BME280;62064;53.406;23.500;2022-07-23T06:32:31;99605.41;;;23.45;63.70
73594;BME280;62064;53.406;23.500;2022-07-23T06:34:59;99611.38;;;23.52;64.00
73594;BME280;62064;53.406;23.500;2022-07-23T06:37:25;99617.69;;;23.52;64.44
73594;BME280;62064;53.406;23.500;2022-07-23T06:39:51;99622.03;;;23.53;64.29
73594;BME280;62064;53.406;23.500;2022-07-23T06:42:18;99612.22;;;23.47;64.31
73594;BME280;62064;53.406;23.500;2022-07-23T06:44:46;99623.97;;;23.53;64.10
73594;BME280;62064;53.406;23.500;2022-07-23T06:47:16;99622.56;;;23.55;64.11
73594;BME280;62064;53.406;23.500;2022-07-23T06:49:42;99616.31;;;23.50;63.70
73594;BME280;62064;53.406;23.500;2022-07-23T06:52:09;99614.41;;;23.50;64.03
73594;BME280;62064;53.406;23.500;2022-07-23T06:54:36;99628.56;;;23.57;63.74
73594;BME280;62064;53.406;23.500;2022-07-23T06:57:03;99631.03;;;23.59;63.90
73594;BME280;62064;53.406;23.500;2022-07-23T06:59:29;99631.84;;;23.59;64.19
73594;BME280;62064;53.406;23.500;2022-07-23T07:01:55;99640.06;;;23.59;64.06
73594;BME280;62064;53.406;23.500;2022-07-23T07:04:23;99629.69;;;23.56;64.14
73594;BME280;62064;53.406;23.500;2022-07-23T07:06:49;99640.81;;;23.65;64.48
73594;BME280;62064;53.406;23.500;2022-07-23T07:09:15;99641.97;;;23.64;64.46
73594;BME280;62064;53.406;23.500;2022-07-23T07:11:42;99635.09;;;23.66;64.34
73594;BME280;62064;53.406;23.500;2022-07-23T07:14:09;99643.84;;;23.68;64.20
73594;BME280;62064;53.406;23.500;2022-07-23T07:16:36;99656.41;;;23.69;63.88
73594;BME280;62064;53.406;23.500;2022-07-23T07:19:02;99633.16;;;23.67;63.97
73594;BME280;62064;53.406;23.500;2022-07-23T07:21:28;99633.13;;;23.72;64.19
73594;BME280;62064;53.406;23.500;2022-07-23T07:23:54;99617.84;;;23.66;63.86
73594;BME280;62064;53.406;23.500;2022-07-23T07:26:21;99630.09;;;23.73;63.78
73594;BME280;62064;53.406;23.500;2022-07-23T07:28:47;99618.09;;;23.69;64.08
73594;BME280;62064;53.406;23.500;2022-07-23T07:31:13;99630.66;;;23.75;64.07
73594;BME280;62064;53.406;23.500;2022-07-23T07:33:40;99617.53;;;23.72;64.12
73594;BME280;62064;53.406;23.500;2022-07-23T07:36:06;99619.44;;;23.72;63.92
73594;BME280;62064;53.406;23.500;2022-07-23T07:38:32;99627.06;;;23.80;64.12
73594;BME280;62064;53.406;23.500;2022-07-23T07:40:59;99630.63;;;23.80;63.60
73594;BME280;62064;53.406;23.500;2022-07-23T07:43:25;99614.50;;;23.74;63.81
73594;BME280;62064;53.406;23.500;2022-07-23T07:45:51;99610.38;;;23.76;63.77
73594;BME280;62064;53.406;23.500;2022-07-23T07:48:18;99611.69;;;23.84;63.73
73594;BME280;62064;53.406;23.500;2022-07-23T07:50:46;99604.84;;;23.81;63.48
73594;BME280;62064;53.406;23.500;2022-07-23T07:53:12;99607.06;;;23.79;63.93
73594;BME280;62064;53.406;23.500;2022-07-23T07:55:38;99619.09;;;23.83;63.68
73594;BME280;62064;53.406;23.500;2022-07-23T07:58:04;99625.63;;;23.88;63.68
73594;BME280;62064;53.406;23.500;2022-07-23T08:00:31;99619.91;;;23.84;63.97
73594;BME280;62064;53.406;23.500;2022-07-23T08:02:59;99626.13;;;23.90;63.85
73594;BME280;62064;53.406;23.500;2022-07-23T08:05:27;99619.56;;;23.91;63.85
73594;BME280;62064;53.406;23.500;2022-07-23T08:07:54;99614.66;;;23.88;63.76
73594;BME280;62064;53.406;23.500;2022-07-23T08:10:22;99622.31;;;23.91;63.77
73594;BME280;62064;53.406;23.500;2022-07-23T08:12:50;99616.56;;;23.92;63.80
73594;BME280;62064;53.406;23.500;2022-07-23T08:15:18;99627.75;;;23.96;63.74
73594;BME280;62064;53.406;23.500;2022-07-23T08:17:46;99617.31;;;23.98;63.48
73594;BME280;62064;53.406;23.500;2022-07-23T08:20:16;99621.69;;;23.99;63.44
73594;BME280;62064;53.406;23.500;2022-07-23T08:25:25;99611.78;;;24.03;63.23
73594;BME280;62064;53.406;23.500;2022-07-23T08:27:59;99609.06;;;24.03;63.01
73594;BME280;62064;53.406;23.500;2022-07-23T08:30:27;99603.03;;;24.01;63.02
73594;BME280;62064;53.406;23.500;2022-07-23T08:35:32;99617.50;;;24.06;63.46
73594;BME280;62064;53.406;23.500;2022-07-23T08:38:01;99623.81;;;24.07;63.44
73594;BME280;62064;53.406;23.500;2022-07-23T08:40:29;99631.75;;;24.08;62.96
73594;BME280;62064;53.406;23.500;2022-07-23T08:42:56;99629.81;;;24.09;63.42
73594;BME280;62064;53.406;23.500;2022-07-23T08:45:24;99629.53;;;24.10;63.49
73594;BME280;62064;53.406;23.500;2022-07-23T08:47:53;99632.00;;;24.12;62.91
73594;BME280;62064;53.406;23.500;2022-07-23T08:50:21;99615.00;;;24.10;63.44
73594;BME280;62064;53.406;23.500;2022-07-23T08:52:52;99625.97;;;24.15;62.88
73594;BME280;62064;53.406;23.500;2022-07-23T08:55:23;99630.34;;;24.16;63.33
73594;BME280;62064;53.406;23.500;2022-07-23T08:57:51;99626.47;;;24.17;62.77
73594;BME280;62064;53.406;23.500;2022-07-23T09:00:20;99618.81;;;24.19;62.73
73594;BME280;62064;53.406;23.500;2022-07-23T09:02:47;99623.19;;;24.20;62.74
73594;BME280;62064;53.406;23.500;2022-07-23T09:05:14;99617.13;;;24.23;62.97
73594;BME280;62064;53.406;23.500;2022-07-23T09:10:57;99610.00;;;24.22;62.97
73594;BME280;62064;53.406;23.500;2022-07-23T09:13:50;99613.50;;;24.27;63.10
73594;BME280;62064;53.406;23.500;2022-07-23T09:16:23;99614.88;;;24.25;63.27
73594;BME280;62064;53.406;23.500;2022-07-23T09:18:55;99603.38;;;24.28;63.23
73594;BME280;62064;53.406;23.500;2022-07-23T09:24:03;99612.34;;;24.33;63.14
73594;BME280;62064;53.406;23.500;2022-07-23T09:26:39;99603.03;;;24.35;62.57
73594;BME280;62064;53.406;23.500;2022-07-23T09:31:56;99605.50;;;24.36;62.48
73594;BME280;62064;53.406;23.500;2022-07-23T09:34:26;99611.47;;;24.38;62.67
73594;BME280;62064;53.406;23.500;2022-07-23T09:36:57;99610.38;;;24.39;63.06
73594;BME280;62064;53.406;23.500;2022-07-23T09:39:32;99598.38;;;24.35;62.91
73594;BME280;62064;53.406;23.500;2022-07-23T09:44:49;99615.81;;;24.44;62.86
73594;BME280;62064;53.406;23.500;2022-07-23T09:47:19;99605.13;;;24.43;62.58
73594;BME280;62064;53.406;23.500;2022-07-23T09:50:06;99599.09;;;24.41;62.88
73594;BME280;62064;53.406;23.500;2022-07-23T09:52:45;99596.09;;;24.42;62.79
73594;BME280;62064;53.406;23.500;2022-07-23T09:55:17;99613.81;;;24.50;62.45
73594;BME280;62064;53.406;23.500;2022-07-23T09:57:45;99617.38;;;24.50;62.44
73594;BME280;62064;53.406;23.500;2022-07-23T10:00:13;99616.28;;;24.51;62.33
73594;BME280;62064;53.406;23.500;2022-07-23T10:02:39;99606.41;;;24.50;62.31
73594;BME280;62064;53.406;23.500;2022-07-23T10:05:25;99611.31;;;24.53;62.32
73594;BME280;62064;53.406;23.500;2022-07-23T10:08:16;99605.00;;;24.53;62.79
73594;BME280;62064;53.406;23.500;2022-07-23T10:11:02;99607.69;;;24.58;62.24
73594;BME280;62064;53.406;23.500;2022-07-23T10:13:54;99593.25;;;24.52;62.37
73594;BME280;62064;53.406;23.500;2022-07-23T10:16:45;99605.50;;;24.60;62.64
73594;BME280;62064;53.406;23.500;2022-07-23T10:19:12;99600.81;;;24.60;62.62
73594;BME280;62064;53.406;23.500;2022-07-23T10:21:46;99600.81;;;24.60;62.00
73594;BME280;62064;53.406;23.500;2022-07-23T10:38:06;99578.22;;;24.68;61.65
73594;BME280;62064;53.406;23.500;2022-07-23T10:40:33;99578.78;;;24.70;61.61
73594;BME280;62064;53.406;23.500;2022-07-23T10:43:00;99572.19;;;24.71;61.85
73594;BME280;62064;53.406;23.500;2022-07-23T10:45:34;99576.53;;;24.72;61.55
73594;BME280;62064;53.406;23.500;2022-07-23T10:48:15;99569.94;;;24.73;61.91
73594;BME280;62064;53.406;23.500;2022-07-23T10:51:24;99562.53;;;24.74;61.32
73594;BME280;62064;53.406;23.500;2022-07-23T10:53:58;99566.63;;;24.76;61.65
73594;BME280;62064;53.406;23.500;2022-07-23T10:59:22;99562.78;;;24.77;61.66
73594;BME280;62064;53.406;23.500;2022-07-23T11:02:23;99554.59;;;24.72;61.28
73594;BME280;62064;53.406;23.500;2022-07-23T11:04:52;99568.47;;;24.81;61.67
73594;BME280;62064;53.406;23.500;2022-07-23T11:07:30;99566.06;;;24.79;61.45
73594;BME280;62064;53.406;23.500;2022-07-23T11:09:58;99563.00;;;24.81;61.46
73594;BME280;62064;53.406;23.500;2022-07-23T11:12:43;99559.41;;;24.86;61.28
73594;BME280;62064;53.406;23.500;2022-07-23T11:15:14;99565.44;;;24.88;61.11
73594;BME280;62064;53.406;23.500;2022-07-23T11:22:51;99542.66;;;24.87;61.33
73594;BME280;62064;53.406;23.500;2022-07-23T11:25:42;99549.69;;;24.93;61.30
73594;BME280;62064;53.406;23.500;2022-07-23T11:28:11;99550.25;;;24.95;61.21
73594;BME280;62064;53.406;23.500;2022-07-23T11:30:40;99549.41;;;24.95;60.70
73594;BME280;62064;53.406;23.500;2022-07-23T11:35:38;99532.44;;;24.93;60.86
73594;BME280;62064;53.406;23.500;2022-07-23T11:38:23;99545.56;;;24.96;61.03
73594;BME280;62064;53.406;23.500;2022-07-23T11:40:52;99556.44;;;25.01;61.15
73594;BME280;62064;53.406;23.500;2022-07-23T11:43:19;99540.59;;;24.98;61.14
73594;BME280;62064;53.406;23.500;2022-07-23T11:45:48;99551.78;;;25.01;60.92
73594;BME280;62064;53.406;23.500;2022-07-23T11:48:28;99532.91;;;25.00;60.71
73594;BME280;62064;53.406;23.500;2022-07-23T11:50:56;99544.91;;;25.04;60.98
73594;BME280;62064;53.406;23.500;2022-07-23T11:53:27;99548.16;;;25.06;60.80
73594;BME280;62064;53.406;23.500;2022-07-23T11:55:54;99543.50;;;25.06;60.29
73594;BME280;62064;53.406;23.500;2022-07-23T11:58:28;99532.81;;;25.05;60.29
73594;BME280;62064;53.406;23.500;2022-07-23T12:00:55;99535.53;;;25.05;60.29
73594;BME280;62064;53.406;23.500;2022-07-23T12:03:21;99548.38;;;25.09;60.74
73594;BME280;62064;53.406;23.500;2022-07-23T12:05:48;99549.19;;;25.10;60.57
73594;BME280;62064;53.406;23.500;2022-07-23T12:08:14;99542.59;;;25.11;60.00
73594;BME280;62064;53.406;23.500;2022-07-23T12:11:03;99533.03;;;25.08;60.57
73594;BME280;62064;53.406;23.500;2022-07-23T12:13:41;99539.56;;;25.12;60.34
73594;BME280;62064;53.406;23.500;2022-07-23T12:16:17;99535.91;;;25.17;60.58
73594;BME280;62064;53.406;23.500;2022-07-23T12:18:45;99541.13;;;25.18;60.34
73594;BME280;62064;53.406;23.500;2022-07-23T12:21:13;99536.75;;;25.17;59.98
73594;BME280;62064;53.406;23.500;2022-07-23T12:23:40;99531.84;;;25.14;60.36
73594;BME280;62064;53.406;23.500;2022-07-23T12:26:07;99530.38;;;25.22;59.89
73594;BME280;62064;53.406;23.500;2022-07-23T12:28:39;99531.19;;;25.22;60.15
73594;BME280;62064;53.406;23.500;2022-07-23T12:31:08;99536.34;;;25.24;60.19
73594;BME280;62064;53.406;23.500;2022-07-23T12:33:38;99525.16;;;25.20;60.39
73594;BME280;62064;53.406;23.500;2022-07-23T12:36:07;99529.75;;;25.25;59.75
73594;BME280;62064;53.406;23.500;2022-07-23T12:38:47;99522.06;;;25.27;59.52
73594;BME280;62064;53.406;23.500;2022-07-23T12:41:15;99520.94;;;25.28;59.65
73594;BME280;62064;53.406;23.500;2022-07-23T12:43:44;99525.09;;;25.25;59.59
73594;BME280;62064;53.406;23.500;2022-07-23T12:46:16;99518.19;;;25.28;59.49
73594;BME280;62064;53.406;23.500;2022-07-23T12:48:53;99520.03;;;25.33;59.31
73594;BME280;62064;53.406;23.500;2022-07-23T12:53:54;99525.25;;;25.34;59.85
73594;BME280;62064;53.406;23.500;2022-07-23T12:56:27;99521.47;;;25.30;59.47
73594;BME280;62064;53.406;23.500;2022-07-23T12:58:56;99523.00;;;25.36;58.98
73594;BME280;62064;53.406;23.500;2022-07-23T13:01:27;99515.28;;;25.38;59.08
73594;BME280;62064;53.406;23.500;2022-07-23T13:04:05;99510.09;;;25.37;59.32
73594;BME280;62064;53.406;23.500;2022-07-23T13:06:34;99512.56;;;25.38;59.43
73594;BME280;62064;53.406;23.500;2022-07-23T13:09:04;99501.66;;;25.33;59.04
73594;BME280;62064;53.406;23.500;2022-07-23T13:11:30;99515.78;;;25.40;59.27
73594;BME280;62064;53.406;23.500;2022-07-23T13:13:56;99502.69;;;25.37;59.34
73594;BME280;62064;53.406;23.500;2022-07-23T13:16:23;99499.72;;;25.34;58.52
73594;BME280;62064;53.406;23.500;2022-07-23T13:18:50;99501.78;;;25.42;58.48
73594;BME280;62064;53.406;23.500;2022-07-23T13:21:16;99505.63;;;25.41;59.13
73594;BME280;62064;53.406;23.500;2022-07-23T13:23:42;99505.63;;;25.41;58.97
73594;BME280;62064;53.406;23.500;2022-07-23T13:26:08;99505.84;;;25.44;58.28
73594;BME280;62064;53.406;23.500;2022-07-23T13:28:35;99497.94;;;25.43;58.35
73594;BME280;62064;53.406;23.500;2022-07-23T13:31:01;99499.78;;;25.47;58.47
73594;BME280;62064;53.406;23.500;2022-07-23T13:33:29;99488.28;;;25.45;58.70
73594;BME280;62064;53.406;23.500;2022-07-23T13:35:55;99492.03;;;25.49;58.34
73594;BME280;62064;53.406;23.500;2022-07-23T13:38:22;99491.22;;;25.49;58.24
73594;BME280;62064;53.406;23.500;2022-07-23T13:40:51;99489.63;;;25.48;58.48
73594;BME280;62064;53.406;23.500;2022-07-23T13:43:20;99477.63;;;25.44;58.45